createdAt,value
2022-10-17T00:00:47.694Z,21.96
2022-10-17T00:02:50.345Z,21.95
2022-10-17T00:04:52.956Z,21.95
2022-10-17T00:06:56.987Z,21.95
2022-10-17T00:08:59.591Z,21.96
2022-10-17T00:11:03.887Z,21.95
2022-10-17T00:13:06.984Z,21.95
2022-10-17T00:15:10.201Z,21.96
2022-10-17T00:17:12.913Z,21.97
2022-10-17T00:19:15.503Z,21.96
2022-10-17T00:21:18.939Z,21.95
2022-10-17T00:23:22.970Z,21.96
2022-10-17T00:25:25.576Z,21.96
2022-10-17T00:27:28.319Z,21.94
2022-10-17T00:29:31.251Z,21.95
2022-10-17T00:31:33.829Z,21.95
2022-10-17T00:33:37.014Z,21.95
2022-10-17T00:35:39.637Z,21.94
2022-10-17T00:37:42.216Z,21.94
2022-10-17T00:39:46.193Z,21.92
2022-10-17T00:41:48.843Z,21.93
2022-10-17T00:43:57.015Z,21.93
2022-10-17T00:45:59.613Z,21.94
2022-10-17T00:48:06.105Z,21.93
2022-10-17T00:50:10.417Z,21.93
2022-10-17T00:52:16.504Z,21.93
2022-10-17T00:54:24.165Z,21.93
2022-10-17T00:56:34.213Z,21.93
2022-10-17T00:58:36.841Z,21.92
2022-10-17T01:00:39.613Z,21.92
2022-10-17T01:02:42.353Z,21.92
2022-10-17T01:04:47.679Z,21.91
2022-10-17T01:06:50.278Z,21.92
2022-10-17T01:08:53.117Z,21.92
2022-10-17T01:11:06.268Z,21.92
2022-10-17T01:13:18.784Z,21.93
2022-10-17T01:15:33.700Z,21.92
2022-10-17T01:17:48.150Z,21.91
2022-10-17T01:20:07.909Z,21.91
2022-10-17T01:22:13.954Z,21.91
2022-10-17T01:24:50.030Z,21.91
2022-10-17T01:27:19.025Z,21.92
2022-10-17T01:29:42.660Z,21.89
2022-10-17T01:31:49.778Z,21.89
2022-10-17T01:34:01.450Z,21.87
2022-10-17T01:36:12.163Z,21.87
2022-10-17T01:38:19.723Z,21.87
2022-10-17T01:40:28.018Z,21.89
2022-10-17T01:42:37.312Z,21.88
2022-10-17T01:44:47.531Z,21.89
2022-10-17T01:46:53.231Z,21.89
2022-10-17T01:48:59.229Z,21.89
2022-10-17T01:51:07.532Z,21.90
2022-10-17T01:53:14.915Z,21.88
2022-10-17T01:55:22.057Z,21.89
2022-10-17T01:57:30.632Z,21.86
2022-10-17T01:59:39.181Z,21.89
2022-10-17T02:01:45.273Z,21.89
2022-10-17T02:03:51.354Z,21.89
2022-10-17T02:05:54.004Z,21.87
2022-10-17T02:07:56.651Z,21.87
2022-10-17T02:09:59.296Z,21.87
2022-10-17T02:12:28.893Z,21.88
2022-10-17T02:14:42.949Z,21.89
2022-10-17T02:16:52.808Z,21.89
2022-10-17T02:19:09.226Z,21.85
2022-10-17T02:21:19.878Z,21.87
2022-10-17T02:23:28.578Z,21.86
2022-10-17T02:25:41.438Z,21.85
2022-10-17T02:27:49.882Z,21.85
2022-10-17T02:29:59.659Z,21.86
2022-10-17T02:32:07.295Z,21.86
2022-10-17T02:34:17.574Z,21.85
2022-10-17T02:36:23.945Z,21.84
2022-10-17T02:38:28.977Z,21.85
2022-10-17T02:40:32.856Z,21.85
2022-10-17T02:42:36.346Z,21.87
2022-10-17T02:44:40.697Z,21.86
2022-10-17T02:46:46.255Z,21.86
2022-10-17T02:48:51.334Z,21.87
2022-10-17T02:51:03.529Z,21.85
2022-10-17T02:53:11.819Z,21.86
2022-10-17T02:55:19.013Z,21.85
2022-10-17T02:57:28.381Z,21.85
2022-10-17T03:01:42.358Z,21.83
2022-10-17T03:03:45.102Z,21.85
2022-10-17T03:05:47.794Z,21.84
2022-10-17T03:07:52.182Z,21.84
2022-10-17T03:09:54.817Z,21.84
2022-10-17T03:11:57.449Z,21.86
2022-10-17T03:14:00.039Z,21.86
2022-10-17T03:18:19.259Z,21.83
2022-10-17T03:20:21.901Z,21.84
2022-10-17T03:22:24.517Z,21.84
2022-10-17T03:24:28.749Z,21.85
2022-10-17T03:26:31.600Z,21.84
2022-10-17T03:28:35.076Z,21.84
2022-10-17T03:30:39.690Z,21.85
2022-10-17T03:32:42.292Z,21.83
2022-10-17T03:34:44.918Z,21.83
2022-10-17T03:36:48.030Z,21.84
2022-10-17T03:38:54.161Z,21.85
2022-10-17T03:40:58.260Z,21.84
2022-10-17T03:43:00.886Z,21.85
2022-10-17T03:45:04.289Z,21.84
2022-10-17T03:47:09.250Z,21.84
2022-10-17T03:49:14.453Z,21.85
2022-10-17T03:51:17.066Z,21.83
2022-10-17T03:53:20.238Z,21.83
2022-10-17T03:55:22.846Z,21.83
2022-10-17T03:57:27.149Z,21.85
2022-10-17T03:59:29.954Z,21.84
2022-10-17T04:01:32.632Z,21.86
2022-10-17T04:03:35.448Z,21.83
2022-10-17T04:05:38.294Z,21.86
2022-10-17T04:07:40.901Z,21.99
2022-10-17T04:09:43.457Z,22.08
2022-10-17T04:11:46.046Z,22.13
2022-10-17T04:13:54.452Z,22.19
2022-10-17T04:15:57.777Z,22.26
2022-10-17T04:18:00.421Z,22.30
2022-10-17T04:20:03.304Z,22.36
2022-10-17T04:22:08.388Z,22.42
2022-10-17T04:24:12.812Z,22.52
2022-10-17T04:26:15.428Z,22.63
2022-10-17T04:28:18.026Z,22.68
2022-10-17T04:30:22.022Z,22.73
2022-10-17T04:32:25.764Z,22.77
2022-10-17T04:34:28.346Z,22.83
2022-10-17T04:36:31.009Z,22.86
2022-10-17T04:38:34.643Z,22.87
2022-10-17T04:40:37.587Z,22.89
2022-10-17T04:42:40.223Z,22.88
2022-10-17T04:44:42.832Z,22.90
2022-10-17T04:46:46.810Z,22.88
2022-10-17T04:48:49.384Z,22.88
2022-10-17T04:50:55.999Z,22.85
2022-10-17T04:52:58.658Z,22.87
2022-10-17T04:55:01.272Z,22.89
2022-10-17T04:57:03.878Z,22.90
2022-10-17T04:59:06.501Z,22.89
2022-10-17T05:01:11.201Z,22.89
2022-10-17T05:03:15.525Z,22.86
2022-10-17T05:05:18.298Z,22.84
2022-10-17T05:07:21.659Z,22.87
2022-10-17T05:09:24.341Z,22.83
2022-10-17T05:11:28.832Z,22.81
2022-10-17T05:13:31.446Z,22.81
2022-10-17T05:17:56.310Z,22.83
2022-10-17T05:20:00.267Z,22.82
2022-10-17T05:22:02.888Z,22.79
2022-10-17T05:24:07.265Z,22.74
2022-10-17T05:26:09.895Z,22.75
2022-10-17T05:28:12.523Z,22.75
2022-10-17T05:30:15.139Z,22.76
